Saint Henry, OH (45883)

6:48 PM EDT on August 31, 2015 (GMT -0400)
Eldora Speedway | | Change Station
CLOSE
Current Station
Personal Weather Station
Location: New Weston, OH
Elevation: 1027 ft
Nearby Weather Stations

Elev 1027 ft 40.32 °N, 84.64 °W | Updated 1 minute ago

Mostly Cloudy
Mostly Cloudy
79.8 °F
Feels Like 83 °F
N
3.0
Wind Variable Wind from South
Gusts 5.0 mph

Today
High -- | Low -- °F
--% Chance of Precip.
Yesterday
High -- | Low -- °F
Precip. -- in
7:04 AM 8:12 PM
Waning Gibbous, 93% visible
Pressure 30.07 in
Visibility 7.0 miles
Clouds Clear
Heat Index 83 °F
Dew Point 72 °F
Humidity 76%
Rainfall in
Snow Depth Not available.
UV 1 out of 12
Pollen 10.30 out of 12
Air Quality Not available.
Flu Activity Not available.
METAR KVES 312235Z AUTO 17005KT 7SM CLR 28/20 A3007 RMK AO2
Pressure 30.07 in
Visibility 7.0 miles
Clouds Clear
Heat Index 83 °F
Dew Point 72 °F
Humidity 76%
Rainfall in
Snow Depth Not available.
UV 1 out of 12
Pollen 10.30 out of 12
Air Quality Not available.
Flu Activity Not available.
METAR KVES 312235Z AUTO 17005KT 7SM CLR 28/20 A3007 RMK AO2

10-Day Weather Forecast

×

Almanac

Astronomy

Aug. 31, 2015 Rise Set
Actual Time
Civil Twilight
Nautical Twilight
Astronomical Twilight
Moon
Length of Visible Light
Length of Day
Tomorrow will be .
, % of the Moon is Illuminated

Today's Extremes

State Highs State Lows

Community

WunderPhotos

Upload Photos

1,851,390 photos uploaded!

WunderBlogs® & News

Nearby

Air Quality

  Air Quality AQ Index Pollutant
Not available.

Snow Depth

Station Depth Elevation

Earthquake Activity

City Distance Mag. Time & Date
Minimum magnitude displayed is 2.5.

Coastal Water Temperatures

Place Temperature

Stations

Nearby Weather Stations

Station Location Temp. Windchill Dew Point Humidity Wind Precip. Elev Updated Type